createdAt,value
2022-08-27T00:00:54.107Z,1.80
2022-08-27T00:03:23.583Z,1.60
2022-08-27T00:05:53.013Z,1.87
2022-08-27T00:08:21.597Z,1.97
2022-08-27T00:10:51.521Z,1.53
2022-08-27T00:13:21.115Z,2.00
2022-08-27T00:15:50.677Z,1.60
2022-08-27T00:18:22.599Z,2.07
2022-08-27T00:20:52.319Z,2.00
2022-08-27T00:23:22.813Z,1.90
2022-08-27T00:25:54.411Z,1.97
2022-08-27T00:28:27.159Z,1.87
2022-08-27T00:30:57.352Z,1.93
2022-08-27T00:33:26.495Z,1.87
2022-08-27T00:35:56.668Z,2.70
2022-08-27T00:38:25.519Z,2.10
2022-08-27T00:40:55.529Z,2.10
2022-08-27T00:43:27.343Z,2.07
2022-08-27T00:46:03.508Z,2.30
2022-08-27T00:48:36.292Z,1.90
2022-08-27T00:51:08.151Z,2.20
2022-08-27T00:53:37.639Z,2.00
2022-08-27T00:56:11.960Z,1.73
2022-08-27T00:58:44.389Z,1.77
2022-08-27T01:01:16.297Z,2.30
2022-08-27T01:03:49.724Z,1.93
2022-08-27T01:06:22.074Z,2.13
2022-08-27T01:08:56.556Z,1.90
2022-08-27T01:11:30.007Z,1.90
2022-08-27T01:14:01.402Z,2.13
2022-08-27T01:16:37.047Z,2.30
2022-08-27T01:19:11.108Z,1.93
2022-08-27T01:21:48.785Z,2.47
2022-08-27T01:24:31.324Z,2.07
2022-08-27T01:27:01.260Z,2.20
2022-08-27T01:29:31.589Z,1.90
2022-08-27T01:32:06.917Z,2.07
2022-08-27T01:34:38.579Z,2.10
2022-08-27T01:37:07.569Z,2.17
2022-08-27T01:39:40.787Z,2.27
2022-08-27T01:42:11.993Z,2.10
2022-08-27T01:44:50.609Z,2.57
2022-08-27T01:47:20.965Z,1.83
2022-08-27T01:49:51.188Z,2.00
2022-08-27T01:52:24.492Z,2.80
2022-08-27T01:54:57.511Z,2.57
2022-08-27T01:57:33.731Z,2.07
2022-08-27T02:00:03.666Z,2.07
2022-08-27T02:02:46.546Z,2.03
2022-08-27T02:05:16.884Z,2.40
2022-08-27T02:07:46.133Z,2.07
2022-08-27T02:10:20.100Z,2.10
2022-08-27T02:12:49.630Z,2.20
2022-08-27T02:15:19.669Z,2.20
2022-08-27T02:17:52.208Z,2.30
2022-08-27T02:20:24.668Z,1.90
2022-08-27T02:22:58.046Z,1.93
2022-08-27T02:25:30.724Z,2.23
2022-08-27T02:28:01.454Z,2.33
2022-08-27T02:30:32.224Z,2.10
2022-08-27T02:33:01.163Z,2.10
2022-08-27T02:35:32.983Z,2.30
2022-08-27T02:38:03.512Z,1.83
2022-08-27T02:40:33.717Z,2.40
2022-08-27T02:43:03.232Z,2.17
2022-08-27T02:45:31.844Z,2.17
2022-08-27T02:48:01.408Z,2.23
2022-08-27T02:50:30.530Z,2.33
2022-08-27T02:53:00.271Z,2.27
2022-08-27T02:55:28.899Z,2.30
2022-08-27T02:58:03.802Z,2.17
2022-08-27T03:00:33.743Z,2.13
2022-08-27T03:03:04.043Z,2.27
2022-08-27T03:05:33.691Z,2.20
2022-08-27T03:08:10.137Z,2.27
2022-08-27T03:10:40.296Z,2.33
2022-08-27T03:13:15.093Z,2.20
2022-08-27T03:15:44.902Z,2.33
2022-08-27T03:18:20.224Z,2.77
2022-08-27T03:20:50.988Z,2.40
2022-08-27T03:23:22.624Z,2.47
2022-08-27T03:25:54.138Z,2.20
2022-08-27T03:28:25.967Z,2.60
2022-08-27T03:31:00.647Z,2.50
2022-08-27T03:33:31.569Z,2.17
2022-08-27T03:36:01.697Z,2.20
2022-08-27T03:38:30.283Z,2.40
2022-08-27T03:40:58.984Z,2.33
2022-08-27T03:43:33.295Z,2.40
2022-08-27T03:46:06.339Z,2.40
2022-08-27T03:48:36.825Z,2.30
2022-08-27T03:51:08.121Z,2.30
2022-08-27T03:53:38.348Z,2.60
2022-08-27T03:56:13.059Z,2.50
2022-08-27T03:58:44.059Z,2.60
2022-08-27T04:01:13.995Z,2.80
2022-08-27T04:03:43.561Z,2.77
2022-08-27T04:06:12.103Z,2.13
2022-08-27T04:08:41.567Z,2.43
2022-08-27T04:11:10.554Z,2.00
2022-08-27T04:13:39.093Z,2.33
2022-08-27T04:16:10.094Z,2.00
2022-08-27T04:18:39.027Z,2.10
2022-08-27T04:21:13.051Z,2.20
2022-08-27T04:23:42.987Z,2.47
2022-08-27T04:26:12.585Z,2.40
2022-08-27T04:28:41.491Z,2.70
2022-08-27T04:31:13.093Z,2.40
2022-08-27T04:33:50.842Z,2.17
2022-08-27T04:36:22.270Z,2.10
2022-08-27T04:38:51.847Z,2.13
2022-08-27T04:41:21.680Z,2.37
2022-08-27T04:43:53.250Z,2.10
2022-08-27T04:46:29.251Z,2.40
2022-08-27T04:49:01.644Z,2.90
2022-08-27T04:51:31.629Z,2.30
2022-08-27T04:54:03.717Z,2.20
2022-08-27T04:56:32.743Z,2.50
2022-08-27T04:59:04.140Z,2.60
2022-08-27T05:01:34.343Z,2.13
2022-08-27T05:04:05.877Z,2.53
2022-08-27T05:06:36.741Z,2.30
2022-08-27T05:09:07.070Z,2.43
2022-08-27T05:11:36.634Z,2.30
2022-08-27T05:14:05.953Z,2.40
2022-08-27T05:16:37.965Z,2.30
2022-08-27T05:19:08.548Z,2.73
2022-08-27T05:21:40.346Z,2.40
2022-08-27T05:24:10.357Z,2.13
2022-08-27T05:26:39.878Z,2.17
2022-08-27T05:29:08.459Z,2.17
2022-08-27T05:31:41.508Z,2.33
2022-08-27T05:34:11.328Z,2.03
2022-08-27T05:36:44.238Z,2.23
2022-08-27T05:39:19.063Z,2.10
2022-08-27T05:41:47.511Z,2.03
2022-08-27T05:44:40.673Z,2.10
2022-08-27T05:47:07.804Z,2.23
2022-08-27T05:49:36.370Z,2.50
2022-08-27T05:52:10.141Z,2.30
2022-08-27T05:54:39.868Z,1.97
2022-08-27T05:57:10.077Z,1.90
2022-08-27T05:59:55.980Z,1.97
2022-08-27T06:02:26.816Z,2.03
2022-08-27T06:04:56.506Z,2.20
2022-08-27T06:07:25.070Z,2.20
2022-08-27T06:09:54.641Z,2.10
2022-08-27T06:12:27.938Z,2.00
2022-08-27T06:14:58.251Z,2.20
2022-08-27T06:17:30.431Z,1.80
2022-08-27T06:20:00.149Z,1.70
2022-08-27T06:22:28.752Z,2.17
2022-08-27T06:24:57.798Z,2.17
2022-08-27T06:27:26.438Z,2.63
2022-08-27T06:29:55.075Z,2.93
2022-08-27T06:32:24.255Z,3.40
2022-08-27T06:34:54.210Z,4.60
2022-08-27T06:37:22.706Z,5.17
2022-08-27T06:39:52.930Z,5.95
2022-08-27T06:42:22.439Z,7.20
2022-08-27T06:44:55.155Z,7.60
2022-08-27T06:47:24.980Z,8.25
2022-08-27T06:49:55.667Z,8.23
2022-08-27T06:52:24.212Z,7.20
2022-08-27T06:54:52.797Z,6.72
2022-08-27T06:57:24.790Z,5.78
2022-08-27T06:59:54.360Z,5.07
2022-08-27T07:02:23.381Z,4.35
2022-08-27T07:04:56.492Z,4.03
2022-08-27T07:07:32.561Z,3.53
2022-08-27T07:10:05.844Z,3.08
2022-08-27T07:12:34.219Z,3.10
2022-08-27T07:15:03.119Z,2.90
2022-08-27T07:17:34.430Z,2.58
2022-08-27T07:20:07.489Z,2.28
2022-08-27T07:22:37.007Z,2.63
2022-08-27T07:25:06.163Z,2.70
2022-08-27T07:27:35.763Z,1.50
2022-08-27T07:30:06.123Z,1.40
2022-08-27T07:32:35.950Z,1.20
2022-08-27T07:35:09.588Z,1.38
2022-08-27T07:37:38.536Z,1.20
2022-08-27T07:40:11.865Z,1.50
2022-08-27T07:43:01.908Z,1.20
2022-08-27T07:45:32.548Z,1.10
2022-08-27T07:48:02.532Z,1.40
2022-08-27T07:50:35.242Z,1.23
2022-08-27T07:53:04.812Z,1.38
2022-08-27T07:55:38.735Z,1.20
2022-08-27T07:58:16.849Z,1.13
2022-08-27T08:00:50.993Z,1.30
2022-08-27T08:03:30.355Z,1.25
2022-08-27T08:06:06.552Z,1.50
2022-08-27T08:08:45.601Z,1.25
2022-08-27T08:11:17.078Z,1.05
2022-08-27T08:13:48.823Z,1.25
2022-08-27T08:16:18.221Z,1.20
2022-08-27T08:18:52.841Z,1.30
2022-08-27T08:21:42.917Z,1.42
2022-08-27T08:24:12.651Z,1.42
2022-08-27T08:26:42.268Z,1.20
2022-08-27T08:29:18.190Z,1.20
2022-08-27T08:31:54.309Z,1.40
2022-08-27T08:34:25.112Z,1.10
2022-08-27T08:36:57.249Z,1.27
2022-08-27T08:39:28.081Z,1.10
2022-08-27T08:42:00.401Z,1.30
2022-08-27T08:44:37.287Z,1.13
2022-08-27T08:47:09.746Z,1.40
2022-08-27T08:49:51.277Z,1.10
2022-08-27T08:52:39.127Z,1.25
2022-08-27T08:55:16.676Z,1.20
2022-08-27T08:57:50.964Z,1.30
2022-08-27T09:00:35.332Z,1.10
2022-08-27T09:03:04.459Z,1.42
2022-08-27T09:05:33.357Z,1.42
2022-08-27T09:08:33.032Z,1.33
2022-08-27T09:11:12.145Z,1.20
2022-08-27T09:13:45.065Z,1.42
2022-08-27T09:16:14.944Z,1.40
2022-08-27T09:18:45.367Z,1.17
2022-08-27T09:21:28.451Z,1.20
2022-08-27T09:24:15.405Z,1.27
2022-08-27T09:26:49.208Z,1.40
2022-08-27T09:29:22.856Z,1.52
2022-08-27T09:32:02.559Z,1.10
2022-08-27T09:34:37.148Z,1.30
2022-08-27T09:37:09.408Z,1.30
2022-08-27T09:39:50.231Z,1.08
2022-08-27T09:42:32.111Z,1.20
2022-08-27T09:45:08.245Z,1.20
2022-08-27T09:47:46.859Z,1.30
2022-08-27T09:50:21.051Z,1.30
2022-08-27T09:52:55.587Z,1.00
2022-08-27T09:55:43.155Z,1.40
2022-08-27T09:58:23.473Z,1.00
2022-08-27T10:01:02.493Z,1.10
2022-08-27T10:03:33.519Z,1.33
2022-08-27T10:06:03.550Z,1.15
2022-08-27T10:08:39.204Z,1.35
2022-08-27T10:11:17.701Z,1.13
2022-08-27T10:13:54.741Z,1.10
2022-08-27T10:16:53.404Z,1.30
2022-08-27T10:19:39.620Z,1.25
2022-08-27T10:22:16.559Z,1.20
2022-08-27T10:25:02.058Z,1.20
2022-08-27T10:27:41.570Z,0.95
2022-08-27T10:30:14.216Z,1.30
2022-08-27T10:33:03.866Z,1.10
2022-08-27T10:35:37.469Z,1.00
2022-08-27T10:38:22.379Z,0.98
2022-08-27T10:40:57.871Z,1.15
2022-08-27T10:43:46.607Z,1.23
2022-08-27T10:46:33.640Z,1.15
2022-08-27T10:49:15.841Z,1.35
2022-08-27T10:51:59.040Z,1.45
2022-08-27T10:54:37.643Z,1.30
2022-08-27T10:57:31.672Z,1.20
2022-08-27T11:00:12.319Z,1.10
2022-08-27T11:02:45.670Z,1.33
2022-08-27T11:05:21.033Z,1.23
2022-08-27T11:07:55.477Z,1.20
2022-08-27T11:10:30.999Z,1.20
2022-08-27T11:13:07.260Z,1.30
2022-08-27T11:15:44.161Z,1.30
2022-08-27T11:18:18.784Z,1.40
2022-08-27T11:20:54.687Z,1.20
2022-08-27T11:23:28.626Z,1.30
2022-08-27T11:26:02.299Z,1.40
2022-08-27T11:28:37.804Z,1.55
2022-08-27T11:31:16.311Z,1.30
2022-08-27T11:33:53.669Z,1.40
2022-08-27T11:36:54.109Z,1.20
2022-08-27T11:39:41.095Z,1.33
2022-08-27T11:42:15.482Z,1.42
2022-08-27T11:44:46.876Z,1.50
2022-08-27T11:47:22.283Z,1.30
2022-08-27T11:49:54.649Z,1.33
2022-08-27T11:52:29.372Z,1.45
2022-08-27T11:55:12.887Z,1.20
2022-08-27T11:57:41.518Z,1.20
2022-08-27T12:00:19.407Z,1.23
2022-08-27T12:03:00.790Z,1.27
2022-08-27T12:05:41.782Z,1.27
2022-08-27T12:08:27.893Z,1.40
2022-08-27T12:11:14.690Z,1.00
2022-08-27T12:13:52.607Z,1.45
2022-08-27T12:16:30.957Z,1.42
2022-08-27T12:19:21.250Z,1.30
2022-08-27T12:22:06.436Z,1.20
2022-08-27T12:24:50.504Z,1.58
2022-08-27T12:27:32.458Z,1.25
2022-08-27T12:30:05.501Z,1.23
2022-08-27T12:32:41.245Z,1.48
2022-08-27T12:35:21.245Z,1.23
2022-08-27T12:37:57.836Z,1.33
2022-08-27T12:40:31.376Z,1.13
2022-08-27T12:43:10.367Z,1.55
2022-08-27T12:45:47.112Z,1.45
2022-08-27T12:48:18.790Z,1.38
2022-08-27T12:50:53.506Z,1.55
2022-08-27T12:53:47.249Z,1.20
2022-08-27T12:56:49.980Z,1.40
2022-08-27T12:59:41.869Z,1.67
2022-08-27T13:02:24.710Z,1.15
2022-08-27T13:04:54.361Z,1.25
2022-08-27T13:07:37.760Z,1.30
2022-08-27T13:10:12.055Z,1.23
2022-08-27T13:12:40.548Z,1.20
2022-08-27T13:15:10.765Z,1.55
2022-08-27T13:17:46.013Z,1.40
2022-08-27T13:20:20.598Z,1.30
2022-08-27T13:22:57.085Z,1.42
2022-08-27T13:25:30.971Z,1.33
2022-08-27T13:28:08.008Z,1.60
2022-08-27T13:30:39.312Z,1.90
2022-08-27T13:33:10.833Z,1.50
2022-08-27T13:35:42.674Z,1.40
2022-08-27T13:38:13.378Z,1.48
2022-08-27T13:40:55.426Z,1.40
2022-08-27T13:43:33.248Z,1.30
2022-08-27T13:46:05.716Z,1.42
2022-08-27T13:48:35.217Z,1.40
2022-08-27T13:51:04.246Z,1.40
2022-08-27T13:53:52.967Z,1.90
2022-08-27T13:56:27.210Z,1.38
2022-08-27T13:58:56.034Z,1.30
2022-08-27T14:01:30.267Z,1.20
2022-08-27T14:04:04.375Z,1.40
2022-08-27T14:06:42.883Z,1.42
2022-08-27T14:09:19.282Z,1.50
2022-08-27T14:11:48.473Z,1.30
2022-08-27T14:14:19.766Z,1.35
2022-08-27T14:16:58.500Z,1.40
2022-08-27T14:19:29.303Z,2.10
2022-08-27T14:22:04.162Z,1.50
2022-08-27T14:24:34.085Z,1.20
2022-08-27T14:27:07.326Z,1.50
2022-08-27T14:29:36.153Z,1.50
2022-08-27T14:32:07.760Z,1.60
2022-08-27T14:34:36.467Z,1.30
2022-08-27T14:37:05.503Z,1.33
2022-08-27T14:39:35.767Z,1.48
2022-08-27T14:42:05.703Z,1.30
2022-08-27T14:44:34.538Z,1.30
2022-08-27T14:47:03.341Z,1.10
2022-08-27T14:49:35.738Z,1.25
2022-08-27T14:52:06.981Z,1.20
2022-08-27T14:54:38.698Z,1.30
2022-08-27T14:57:08.468Z,1.20
2022-08-27T14:59:38.336Z,1.50
2022-08-27T15:02:11.404Z,1.30
2022-08-27T15:04:39.979Z,1.40
2022-08-27T15:07:10.834Z,1.52
2022-08-27T15:09:40.747Z,1.20
2022-08-27T15:12:15.068Z,1.35
2022-08-27T15:14:55.311Z,1.60
2022-08-27T15:17:34.299Z,1.48
2022-08-27T15:20:06.971Z,1.40
2022-08-27T15:22:36.506Z,1.85
2022-08-27T15:25:08.978Z,1.48
2022-08-27T15:27:39.197Z,1.60
2022-08-27T15:30:10.922Z,1.42
2022-08-27T15:32:42.584Z,1.90
2022-08-27T15:35:14.146Z,2.05
2022-08-27T15:37:43.781Z,1.85
2022-08-27T15:40:17.191Z,1.63
2022-08-27T15:42:46.382Z,1.90
2022-08-27T15:45:16.119Z,1.65
2022-08-27T15:47:44.647Z,1.60
2022-08-27T15:50:13.156Z,1.88
2022-08-27T15:52:43.468Z,1.55
2022-08-27T15:55:21.275Z,1.75
2022-08-27T15:57:50.010Z,1.65
2022-08-27T16:00:20.334Z,1.67
2022-08-27T16:02:49.875Z,1.50
2022-08-27T16:05:19.403Z,1.48
2022-08-27T16:07:48.212Z,1.90
2022-08-27T16:10:19.267Z,1.42
2022-08-27T16:12:47.897Z,1.80
2022-08-27T16:15:17.512Z,1.50
2022-08-27T16:17:46.824Z,1.45
2022-08-27T16:20:17.418Z,1.88
2022-08-27T16:22:46.467Z,1.58
2022-08-27T16:25:18.451Z,1.83
2022-08-27T16:27:49.629Z,1.83
2022-08-27T16:30:18.979Z,1.65
2022-08-27T16:32:49.438Z,1.50
2022-08-27T16:35:18.504Z,1.70
2022-08-27T16:37:47.055Z,1.70
2022-08-27T16:40:16.279Z,1.70
2022-08-27T16:42:48.847Z,1.77
2022-08-27T16:45:22.755Z,1.55
2022-08-27T16:48:09.285Z,1.40
2022-08-27T16:50:38.433Z,1.45
2022-08-27T16:53:09.179Z,1.50
2022-08-27T16:55:39.295Z,1.75
2022-08-27T16:58:13.490Z,1.50
2022-08-27T17:00:45.098Z,1.90
2022-08-27T17:03:14.975Z,1.70
2022-08-27T17:05:43.701Z,1.58
2022-08-27T17:08:13.638Z,1.60
2022-08-27T17:10:45.835Z,1.30
2022-08-27T17:13:17.036Z,1.60
2022-08-27T17:15:52.581Z,1.60
2022-08-27T17:18:22.660Z,1.42
2022-08-27T17:20:52.422Z,1.40
2022-08-27T17:23:24.850Z,1.65
2022-08-27T17:25:53.458Z,1.50
2022-08-27T17:28:21.969Z,1.58
2022-08-27T17:30:52.097Z,1.50
2022-08-27T17:33:24.380Z,1.45
2022-08-27T17:35:53.028Z,1.58
2022-08-27T17:38:21.459Z,1.40
2022-08-27T17:40:52.217Z,1.60
2022-08-27T17:43:21.754Z,1.42
2022-08-27T17:45:52.545Z,1.30
2022-08-27T17:48:26.040Z,1.50
2022-08-27T17:50:55.369Z,1.55
2022-08-27T17:53:24.135Z,1.77
2022-08-27T17:55:52.727Z,2.03
2022-08-27T17:58:21.493Z,2.08
2022-08-27T18:00:52.163Z,2.38
2022-08-27T18:03:21.740Z,2.10
2022-08-27T18:05:50.618Z,1.55
2022-08-27T18:08:20.572Z,1.48
2022-08-27T18:10:49.571Z,1.58
2022-08-27T18:13:19.648Z,1.70
2022-08-27T18:16:02.267Z,1.48
2022-08-27T18:18:30.868Z,1.88
2022-08-27T18:20:59.826Z,1.40
2022-08-27T18:23:29.889Z,1.25
2022-08-27T18:26:00.155Z,1.65
2022-08-27T18:28:29.157Z,1.83
2022-08-27T18:30:59.749Z,1.52
2022-08-27T18:33:32.457Z,1.80
2022-08-27T18:36:07.789Z,1.60
2022-08-27T18:38:36.672Z,1.48
2022-08-27T18:41:05.328Z,1.20
2022-08-27T18:43:37.940Z,1.02
2022-08-27T18:46:08.722Z,1.20
2022-08-27T18:48:37.604Z,1.20
2022-08-27T18:51:08.135Z,1.42
2022-08-27T18:53:40.594Z,1.30
2022-08-27T18:56:10.581Z,1.58
2022-08-27T18:58:40.207Z,1.55
2022-08-27T19:01:14.369Z,1.13
2022-08-27T19:03:46.194Z,1.42
2022-08-27T19:06:18.128Z,1.80
2022-08-27T19:08:47.557Z,1.63
2022-08-27T19:11:16.438Z,1.70
2022-08-27T19:13:45.003Z,2.30
2022-08-27T19:16:24.207Z,2.97
2022-08-27T19:18:53.562Z,2.72
2022-08-27T19:21:24.844Z,4.65
2022-08-27T19:23:54.171Z,4.10
2022-08-27T19:26:25.490Z,5.00
2022-08-27T19:28:54.676Z,4.15
2022-08-27T19:31:24.670Z,3.80
2022-08-27T19:33:53.487Z,3.25
2022-08-27T19:36:23.768Z,3.65
2022-08-27T19:38:58.178Z,3.50
2022-08-27T19:41:28.041Z,3.25
2022-08-27T19:43:56.618Z,2.70
2022-08-27T19:46:27.615Z,2.08
2022-08-27T19:48:58.105Z,1.92
2022-08-27T19:51:26.714Z,1.88
2022-08-27T19:53:55.328Z,2.30
2022-08-27T19:56:23.837Z,1.85
2022-08-27T19:58:56.665Z,1.60
2022-08-27T20:01:28.787Z,1.65
2022-08-27T20:03:59.086Z,1.50
2022-08-27T20:06:30.052Z,1.40
2022-08-27T20:08:58.779Z,2.05
2022-08-27T20:11:27.547Z,1.42
2022-08-27T20:13:56.402Z,1.73
2022-08-27T20:16:24.959Z,2.00
2022-08-27T20:18:59.659Z,1.70
2022-08-27T20:21:29.418Z,4.28
2022-08-27T20:23:57.946Z,1.80
2022-08-27T20:26:26.481Z,1.88
2022-08-27T20:28:54.930Z,1.58
2022-08-27T20:31:23.993Z,1.63
2022-08-27T20:33:52.799Z,2.00
2022-08-27T20:36:28.398Z,1.77
2022-08-27T20:38:57.089Z,1.65
2022-08-27T20:41:25.707Z,1.60
2022-08-27T20:43:54.775Z,1.50
2022-08-27T20:46:25.793Z,1.50
2022-08-27T20:48:56.557Z,1.63
2022-08-27T20:51:27.281Z,1.50
2022-08-27T20:53:56.567Z,1.80
2022-08-27T20:56:25.217Z,1.45
2022-08-27T20:59:10.891Z,1.75
2022-08-27T21:01:39.664Z,1.77
2022-08-27T21:04:08.054Z,1.70
2022-08-27T21:06:37.925Z,1.85
2022-08-27T21:09:06.626Z,1.75
2022-08-27T21:11:35.220Z,1.50
2022-08-27T21:14:03.698Z,1.58
2022-08-27T21:16:34.930Z,1.50
2022-08-27T21:19:03.410Z,1.60
2022-08-27T21:21:32.075Z,1.58
2022-08-27T21:24:02.470Z,1.90
2022-08-27T21:26:32.133Z,2.20
2022-08-27T21:29:00.614Z,2.33
2022-08-27T21:31:29.618Z,1.65
2022-08-27T21:33:58.243Z,1.75
2022-08-27T21:36:26.777Z,1.70
2022-08-27T21:38:55.514Z,1.42
2022-08-27T21:41:26.349Z,1.73
2022-08-27T21:43:55.026Z,1.60
2022-08-27T21:46:24.055Z,1.75
2022-08-27T21:48:59.105Z,1.58
2022-08-27T21:51:28.151Z,1.70
2022-08-27T21:53:56.558Z,1.83
2022-08-27T21:56:26.533Z,1.90
2022-08-27T21:58:57.399Z,2.03
2022-08-27T22:01:28.945Z,1.67
2022-08-27T22:03:57.648Z,1.90
2022-08-27T22:06:27.466Z,1.60
2022-08-27T22:08:56.006Z,2.00
2022-08-27T22:11:26.227Z,1.90
2022-08-27T22:13:55.113Z,2.20
2022-08-27T22:16:23.878Z,2.08
2022-08-27T22:18:54.754Z,1.98
2022-08-27T22:21:24.187Z,2.00
2022-08-27T22:23:53.568Z,2.10
2022-08-27T22:26:22.900Z,2.03
2022-08-27T22:28:52.818Z,1.75
2022-08-27T22:31:21.559Z,2.23
2022-08-27T22:33:50.116Z,1.83
2022-08-27T22:36:19.871Z,2.40
2022-08-27T22:38:48.434Z,2.00
2022-08-27T22:41:18.571Z,2.50
2022-08-27T22:43:47.567Z,1.80
2022-08-27T22:46:19.052Z,2.03
2022-08-27T22:48:50.175Z,2.20
2022-08-27T22:51:22.801Z,2.17
2022-08-27T22:55:45.653Z,2.10
2022-08-27T22:58:16.453Z,1.90
2022-08-27T23:00:52.147Z,2.37
2022-08-27T23:03:21.422Z,2.53
2022-08-27T23:05:49.809Z,2.30
2022-08-27T23:08:18.323Z,2.13
2022-08-27T23:10:47.972Z,2.20
2022-08-27T23:13:16.380Z,2.10
2022-08-27T23:15:44.675Z,1.83
2022-08-27T23:18:13.236Z,2.30
2022-08-27T23:20:41.667Z,2.40
2022-08-27T23:23:10.284Z,2.00
2022-08-27T23:25:56.426Z,2.20
2022-08-27T23:28:26.136Z,2.23
2022-08-27T23:30:54.649Z,2.90
2022-08-27T23:33:23.285Z,2.30
2022-08-27T23:35:51.952Z,2.67
2022-08-27T23:38:21.344Z,2.97
2022-08-27T23:40:51.289Z,3.17
2022-08-27T23:43:20.968Z,2.33
2022-08-27T23:45:52.112Z,2.60
2022-08-27T23:48:21.093Z,2.70
2022-08-27T23:50:49.629Z,2.30
2022-08-27T23:53:17.927Z,2.80
2022-08-27T23:55:46.224Z,2.27
2022-08-27T23:58:14.952Z,2.50
